Carson, CA (90895)

3:15 PM PDT on September 19, 2014 (GMT -0700)
American Honda Motor Co., Inc. | Change Station
CLOSE
Current Station
Personal Weather Station
Location: Torrance, CA
Elevation: 75 ft
Nearby Weather Stations

Elev 75 ft 33.84 °N, 118.31 °W | Updated 6 seconds ago

Clear
Clear
74.9 °F
Feels Like 77 °F
N
10.0
Wind Variable Wind from WNW
Gusts 15.0 mph

Today
High -- | Low -- °F
--% Chance of Precip.
Yesterday
High -- | Low -- °F
Precip. -- in
6:39 AM 6:53 PM
Waning Crescent, 16% visible
Pressure 29.85 in
Visibility 10.0 miles
Clouds Clear
Heat Index 77 °F
Dew Point 64 °F
Humidity 68%
Rainfall 0.00 in
Snow Depth 1 in , 1 in , 0 in
UV 7 out of 12
Pollen 6.90 out of 12
Ozone Good
Flu Activity Not available.
METAR KTOA 192147Z 29012KT 10SM SKC 27/17 A2985

More Conditions Fewer Conditions

Pressure 29.85 in
Visibility 10.0 miles
Clouds Clear
Heat Index 77 °F
Dew Point 64 °F
Humidity 68%
Rainfall 0.00 in
Snow Depth 1 in , 1 in , 0 in
UV 7 out of 12
Pollen 6.90 out of 12
Ozone Good
Flu Activity Not available.
METAR KTOA 192147Z 29012KT 10SM SKC 27/17 A2985

More Conditions Fewer Conditions

10-Day Weather Forecast

Almanac

Astronomy

Sep. 19, 2014 Rise Set
Actual Time 6:39 AM PDT 6:53 PM PDT
Civil Twilight 6:14 AM PDT 7:18 PM PDT
Nautical Twilight 5:45 AM PDT 7:47 PM PDT
Astronomical Twilight 5:15 AM PDT 8:17 PM PDT
Moon 2:38 AM PDT 4:17 PM PDT
Length of Visible Light 13h 04m
Length of Day
12h 14m
Tomorrow will be 2m 5s shorter.
Waning Crescent, 16% of the Moon is Illuminated
Today
Waning Crescent
Sep 24
New
Oct 1
First Quarter
Oct 8
Full
Oct 15
Last Quarter

Today's Extremes

State Highs State Lows

Community

WunderPhotos

Upload Photos

1,754,719 photos uploaded!

WunderBlogs® & News

Nearby

Air Quality

  Air Quality AQ Index Pollutant
Yesterday Good
OZONE
Current Good
OZONE
Saturday Good
PM10
Saturday Good
OZONE
Saturday Good
CO
Saturday Good
NO2

Snow Depth

Station Depth Elevation
Leavitt Meadows 0 in 7200 ft
CSS Lab 1 in 6900 ft
Adin Mountain 1 in 6200 ft
Summit Meadow 0 in 9122 ft

Earthquake Activity

City Distance Mag. Time & Date
Aguanga, California 89 miles 2.5 1:38 AM PDT
2014-09-19
Minimum magnitude displayed is 2.5.

Coastal Water Temperatures

Place Temperature
Santa Monica Pier 71.1 °F
Los Angeles, CA 68.0 °F
La Jolla, CA 73.0 °F

Nearby Weather Stations